Time;durP1;ratioP1;P1;durP2;ratioP2;P2;SDS_P1;SDS_P2;PMS_P1;PMS_P2;Temp;Humidity;BMP_temperature;BMP_pressure;BME280_temperature;BME280_humidity;BME280_pressure;Samples;Min_cycle;Max_cycle;Signal;HPM_P1;HPM_P2
2021/10/17 00:02:08;;;;;;;6.72;3.55;;;10.10;87.10;;;;;;4991549;28;20057;-62
2021/10/17 00:04:33;;;;;;;7.05;3.55;;;10.10;87.10;;;;;;4996887;28;20076;-62
2021/10/17 00:06:59;;;;;;;9.00;3.40;;;10.10;87.10;;;;;;4992752;28;20096;-62
2021/10/17 00:09:24;;;;;;;6.55;3.70;;;10.10;86.90;;;;;;4993791;28;20030;-61
2021/10/17 00:11:50;;;;;;;11.27;4.32;;;10.10;86.80;;;;;;4994200;28;20028;-62
2021/10/17 00:14:15;;;;;;;8.85;4.68;;;10.10;87.00;;;;;;4993715;28;20015;-62
2021/10/17 00:16:42;;;;;;;10.80;5.10;;;10.10;87.60;;;;;;4981372;28;20080;-62
2021/10/17 00:19:07;;;;;;;9.82;4.72;;;10.00;88.10;;;;;;4995685;28;20029;-62
2021/10/17 00:21:33;;;;;;;9.63;4.43;;;9.90;88.30;;;;;;4998435;28;20437;-62
2021/10/17 00:23:58;;;;;;;7.90;3.97;;;9.90;88.40;;;;;;4995102;28;20023;-62
2021/10/17 00:26:24;;;;;;;11.48;5.78;;;9.90;88.50;;;;;;5000003;28;20053;-62
2021/10/17 00:28:49;;;;;;;14.07;5.70;;;9.90;88.60;;;;;;4991947;28;20529;-62
2021/10/17 00:31:15;;;;;;;12.90;5.13;;;9.90;89.10;;;;;;4998577;28;20389;-62
2021/10/17 00:33:40;;;;;;;12.57;6.03;;;9.80;89.60;;;;;;4994200;28;20073;-62
2021/10/17 00:36:06;;;;;;;12.40;4.95;;;9.80;90.00;;;;;;4994037;28;20019;-62
2021/10/17 00:38:32;;;;;;;10.05;4.55;;;9.80;90.10;;;;;;4993959;28;20026;-62
2021/10/17 00:40:57;;;;;;;17.48;5.45;;;9.80;90.10;;;;;;4993659;28;20026;-62
2021/10/17 00:43:23;;;;;;;12.45;5.18;;;9.80;90.10;;;;;;4996740;28;20025;-62
2021/10/17 00:45:48;;;;;;;10.77;5.45;;;9.80;90.10;;;;;;4999893;28;20482;-62
2021/10/17 00:48:14;;;;;;;12.60;5.70;;;9.80;90.10;;;;;;4998190;28;20080;-61
2021/10/17 00:50:39;;;;;;;11.80;5.90;;;9.70;90.30;;;;;;4978188;28;20386;-62
2021/10/17 00:53:05;;;;;;;12.18;5.65;;;9.70;90.50;;;;;;4995542;28;20018;-62
2021/10/17 00:55:31;;;;;;;9.55;4.47;;;9.70;90.60;;;;;;4975849;28;20026;-61
2021/10/17 00:58:00;;;;;;;10.68;5.32;;;9.70;90.50;;;;;;4992794;28;20054;-62
2021/10/17 01:00:26;;;;;;;11.52;5.85;;;9.70;90.50;;;;;;4999578;28;20499;-62
2021/10/17 01:02:52;;;;;;;12.18;5.65;;;9.70;90.90;;;;;;4999548;28;20534;-62
2021/10/17 01:05:18;;;;;;;11.30;5.72;;;9.70;90.80;;;;;;4996904;28;20109;-61
2021/10/17 01:07:45;;;;;;;12.13;5.93;;;9.60;90.80;;;;;;4997954;28;20026;-61
2021/10/17 01:10:11;;;;;;;13.23;6.82;;;9.60;90.80;;;;;;4993590;28;20089;-62
2021/10/17 01:12:37;;;;;;;11.88;5.70;;;9.60;90.80;;;;;;4998444;28;20014;-62
2021/10/17 01:15:06;;;;;;;11.10;5.22;;;9.60;90.70;;;;;;4989868;28;20034;-62
2021/10/17 01:17:34;;;;;;;11.13;5.78;;;9.70;90.70;;;;;;5001091;28;20117;-62
2021/10/17 01:20:00;;;;;;;9.65;5.07;;;9.60;90.60;;;;;;4996132;28;20438;-62
2021/10/17 01:22:26;;;;;;;14.52;6.20;;;9.60;90.70;;;;;;4996608;28;20118;-62
2021/10/17 01:24:52;;;;;;;9.18;4.32;;;9.60;90.70;;;;;;4995548;28;20029;-61
2021/10/17 01:27:18;;;;;;;11.18;5.03;;;9.60;90.60;;;;;;4995915;28;20026;-61
2021/10/17 01:29:46;;;;;;;11.15;5.05;;;9.70;90.60;;;;;;4995909;28;20032;-61
2021/10/17 01:32:12;;;;;;;9.23;4.90;;;9.70;90.50;;;;;;4994410;28;20422;-61
2021/10/17 01:34:37;;;;;;;11.77;5.47;;;9.70;90.50;;;;;;4976085;28;20015;-62
2021/10/17 01:37:03;;;;;;;12.13;4.95;;;9.70;90.50;;;;;;4999236;28;20022;-62
2021/10/17 01:39:28;;;;;;;9.95;5.25;;;9.70;90.40;;;;;;4989304;28;20045;-62
2021/10/17 01:41:54;;;;;;;9.23;5.10;;;9.70;90.50;;;;;;4991078;28;21359;-61
2021/10/17 01:44:26;;;;;;;9.93;4.93;;;9.60;90.60;;;;;;4997686;28;20026;-62
2021/10/17 01:46:53;;;;;;;13.77;4.93;;;9.60;90.70;;;;;;4995215;28;20033;-62
2021/10/17 01:49:19;;;;;;;9.60;4.38;;;9.60;90.70;;;;;;4998421;28;20545;-62
2021/10/17 01:51:44;;;;;;;14.20;4.95;;;9.60;90.70;;;;;;5002047;28;20061;-61
2021/10/17 01:54:10;;;;;;;13.02;5.28;;;9.70;90.70;;;;;;4996772;28;20071;-61
2021/10/17 01:56:36;;;;;;;10.60;4.90;;;9.70;90.70;;;;;;4992268;28;20038;-61
2021/10/17 01:59:02;;;;;;;11.38;4.72;;;9.60;90.60;;;;;;4991758;28;20022;-61
2021/10/17 02:01:28;;;;;;;11.10;4.63;;;9.70;90.60;;;;;;4998602;28;20030;-62
2021/10/17 02:03:54;;;;;;;10.20;5.40;;;9.70;90.50;;;;;;5012805;28;20045;-61
2021/10/17 02:06:20;;;;;;;15.85;5.63;;;9.70;90.50;;;;;;4998574;28;20015;-62
2021/10/17 02:08:46;;;;;;;11.02;5.00;;;9.60;90.60;;;;;;4993161;28;20379;-61
2021/10/17 02:11:12;;;;;;;12.43;5.55;;;9.60;90.80;;;;;;4996937;28;20529;-62
2021/10/17 02:13:39;;;;;;;14.00;5.38;;;9.60;91.00;;;;;;4994510;28;20034;-62
2021/10/17 02:16:05;;;;;;;7.07;4.50;;;9.60;91.10;;;;;;4993922;28;20037;-62
2021/10/17 02:18:30;;;;;;;8.43;4.78;;;9.60;91.10;;;;;;4994157;28;20018;-62
2021/10/17 02:20:56;;;;;;;11.02;4.95;;;9.60;91.10;;;;;;4996203;28;20069;-62
2021/10/17 02:23:21;;;;;;;9.18;4.38;;;9.60;91.10;;;;;;4989502;28;20118;-62
2021/10/17 02:25:47;;;;;;;5.68;3.40;;;9.60;91.10;;;;;;4993019;28;20093;-62
2021/10/17 02:28:12;;;;;;;9.02;3.75;;;9.70;91.00;;;;;;4996234;28;20461;-61
2021/10/17 02:30:38;;;;;;;5.32;2.88;;;9.70;91.00;;;;;;4990399;28;20105;-62
2021/10/17 02:33:03;;;;;;;4.32;2.15;;;9.80;90.90;;;;;;4997096;28;20018;-62
2021/10/17 02:35:29;;;;;;;5.68;2.58;;;9.80;90.90;;;;;;5000518;28;20037;-62
2021/10/17 02:37:54;;;;;;;7.97;3.70;;;9.80;90.80;;;;;;4996636;28;20450;-61
2021/10/17 02:40:20;;;;;;;12.02;5.72;;;9.80;90.90;;;;;;4996347;28;20387;-62
2021/10/17 02:42:45;;;;;;;11.18;5.53;;;9.70;91.10;;;;;;4992011;28;20509;-62
2021/10/17 02:45:11;;;;;;;11.48;6.03;;;9.60;91.50;;;;;;4993967;28;20073;-62
2021/10/17 02:47:36;;;;;;;14.30;6.15;;;9.40;91.80;;;;;;4999104;28;20110;-62
2021/10/17 02:50:03;;;;;;;9.88;5.80;;;9.40;92.20;;;;;;4993654;28;20033;-62
2021/10/17 02:52:29;;;;;;;12.00;5.22;;;9.40;92.40;;;;;;4998426;28;20428;-62
2021/10/17 02:54:54;;;;;;;10.68;5.32;;;9.30;92.60;;;;;;4996875;28;20089;-62
2021/10/17 02:57:20;;;;;;;9.30;5.03;;;9.40;92.30;;;;;;5001149;28;20042;-62
2021/10/17 02:59:47;;;;;;;10.93;5.80;;;9.40;92.20;;;;;;4994762;28;20039;-62
2021/10/17 03:02:12;;;;;;;14.40;5.45;;;9.40;92.10;;;;;;4997403;28;20023;-62
2021/10/17 03:04:38;;;;;;;12.23;6.03;;;9.40;91.90;;;;;;5007494;28;20547;-61
2021/10/17 03:07:03;;;;;;;12.50;5.55;;;9.40;91.80;;;;;;5000643;28;20022;-62
2021/10/17 03:09:29;;;;;;;13.80;6.40;;;9.40;91.80;;;;;;4996970;28;20102;-62
2021/10/17 03:11:54;;;;;;;14.30;6.47;;;9.40;91.90;;;;;;4995279;28;20050;-62
2021/10/17 03:14:20;;;;;;;11.45;5.95;;;9.30;92.00;;;;;;4995169;28;20088;-62
2021/10/17 03:16:46;;;;;;;10.18;6.45;;;9.30;92.10;;;;;;4997407;28;20085;-62
2021/10/17 03:19:12;;;;;;;10.60;5.65;;;9.30;92.20;;;;;;4999840;28;20049;-62
2021/10/17 03:21:38;;;;;;;10.75;6.28;;;9.30;92.20;;;;;;4992918;28;20029;-61
2021/10/17 03:24:04;;;;;;;10.98;5.53;;;9.30;92.20;;;;;;4999944;28;20015;-62
2021/10/17 03:26:31;;;;;;;9.48;5.00;;;9.30;92.20;;;;;;4982328;28;20018;-62
2021/10/17 03:28:56;;;;;;;8.10;4.43;;;9.30;92.20;;;;;;4995134;28;20026;-62
2021/10/17 03:31:22;;;;;;;6.93;3.35;;;9.40;92.10;;;;;;4997708;28;20034;-61
2021/10/17 03:33:47;;;;;;;7.60;3.13;;;9.40;92.00;;;;;;4992319;28;20022;-61
2021/10/17 03:36:13;;;;;;;4.13;2.67;;;9.50;91.90;;;;;;4991995;28;20471;-62
2021/10/17 03:38:39;;;;;;;5.82;3.85;;;9.50;91.80;;;;;;4998302;28;20058;-61
2021/10/17 03:41:05;;;;;;;10.55;4.50;;;9.60;91.80;;;;;;4995834;28;20057;-62
2021/10/17 03:43:30;;;;;;;7.68;4.32;;;9.50;91.60;;;;;;4985400;28;20085;-62
2021/10/17 03:45:56;;;;;;;13.38;6.22;;;9.50;91.60;;;;;;5004535;28;20045;-62
2021/10/17 03:48:22;;;;;;;12.75;6.22;;;9.50;91.80;;;;;;5001178;28;20029;-61
2021/10/17 03:50:47;;;;;;;9.65;5.60;;;9.30;92.10;;;;;;4997200;28;20026;-62
2021/10/17 03:53:13;;;;;;;11.10;6.05;;;9.20;92.40;;;;;;4997836;28;20106;-62
2021/10/17 03:55:38;;;;;;;11.82;5.75;;;9.20;92.60;;;;;;4993137;28;20026;-62
2021/10/17 03:58:04;;;;;;;10.07;4.82;;;9.20;92.70;;;;;;4997009;28;20382;-62
2021/10/17 04:00:30;;;;;;;9.18;4.82;;;9.20;92.60;;;;;;4993833;28;20053;-62
2021/10/17 04:02:56;;;;;;;8.50;5.15;;;9.20;92.50;;;;;;4998532;28;20785;-61
2021/10/17 04:05:21;;;;;;;6.32;3.90;;;9.30;92.40;;;;;;4998481;28;20054;-62
2021/10/17 04:07:47;;;;;;;9.57;4.95;;;9.30;92.30;;;;;;4999724;28;20022;-62
2021/10/17 04:10:12;;;;;;;10.80;5.40;;;9.30;92.40;;;;;;5000160;28;20084;-62
2021/10/17 04:12:38;;;;;;;11.35;4.95;;;9.30;92.40;;;;;;4997477;28;20415;-62
2021/10/17 04:15:04;;;;;;;12.82;5.80;;;9.30;92.40;;;;;;4999521;28;20034;-62
2021/10/17 04:17:30;;;;;;;13.68;6.10;;;9.30;92.40;;;;;;4993397;28;20120;-61
2021/10/17 04:19:55;;;;;;;13.80;6.13;;;9.20;92.50;;;;;;4998338;28;20490;-62
2021/10/17 04:22:21;;;;;;;10.82;6.05;;;9.20;92.60;;;;;;4994503;28;20522;-61
2021/10/17 04:24:46;;;;;;;12.43;6.32;;;9.10;92.70;;;;;;4991642;28;20152;-61
2021/10/17 04:27:12;;;;;;;11.52;6.80;;;9.10;92.80;;;;;;4994864;28;20018;-61
2021/10/17 04:29:38;;;;;;;13.82;6.45;;;9.00;93.00;;;;;;4990646;28;20033;-61
2021/10/17 04:32:05;;;;;;;15.52;7.68;;;8.90;93.30;;;;;;4993411;28;20382;-61
2021/10/17 04:34:31;;;;;;;13.52;7.03;;;8.80;93.80;;;;;;4997349;28;20437;-61
2021/10/17 04:36:57;;;;;;;13.18;8.10;;;8.80;93.90;;;;;;5001145;28;20490;-61
2021/10/17 04:39:23;;;;;;;17.15;7.28;;;8.70;94.10;;;;;;4996464;28;20022;-61
2021/10/17 04:41:49;;;;;;;15.02;8.05;;;8.70;94.20;;;;;;4993583;28;20491;-62
2021/10/17 04:44:15;;;;;;;15.32;7.07;;;8.70;94.30;;;;;;4992263;28;20022;-61
2021/10/17 04:46:40;;;;;;;14.70;7.53;;;8.70;94.40;;;;;;4995020;28;20015;-61
2021/10/17 04:49:06;;;;;;;10.82;6.53;;;8.70;94.40;;;;;;4996548;28;20028;-61
2021/10/17 04:51:31;;;;;;;16.13;6.50;;;8.70;94.30;;;;;;4997334;28;20430;-62
2021/10/17 04:53:57;;;;;;;11.73;6.72;;;8.70;94.20;;;;;;4999508;28;20447;-61
2021/10/17 04:56:22;;;;;;;11.90;6.65;;;8.70;94.20;;;;;;4998945;28;20072;-61
2021/10/17 04:58:48;;;;;;;14.85;6.65;;;8.70;94.10;;;;;;4993297;28;20029;-62
2021/10/17 05:01:14;;;;;;;13.43;7.00;;;8.70;94.10;;;;;;4995328;28;20410;-61
2021/10/17 05:03:39;;;;;;;12.43;7.43;;;8.70;94.10;;;;;;4997867;28;20030;-61
2021/10/17 05:06:05;;;;;;;13.27;7.43;;;8.70;94.10;;;;;;4997500;28;20064;-61
2021/10/17 05:08:30;;;;;;;13.05;7.60;;;8.70;94.20;;;;;;4994201;28;20022;-61
2021/10/17 05:10:56;;;;;;;16.60;7.97;;;8.60;94.30;;;;;;4994952;28;20599;-61
2021/10/17 05:13:22;;;;;;;16.45;7.50;;;8.60;94.30;;;;;;4991770;28;20104;-61
2021/10/17 05:15:47;;;;;;;11.85;6.38;;;8.50;94.40;;;;;;4991217;28;20030;-61
2021/10/17 05:18:13;;;;;;;13.05;6.60;;;8.50;94.40;;;;;;5002279;28;20076;-62
2021/10/17 05:20:39;;;;;;;12.23;6.53;;;8.60;94.40;;;;;;5007494;28;20121;-61
2021/10/17 05:23:05;;;;;;;15.00;7.10;;;8.60;94.30;;;;;;5012715;28;20065;-61
2021/10/17 05:25:31;;;;;;;14.15;6.70;;;8.60;94.30;;;;;;5013194;28;20037;-61
2021/10/17 05:27:56;;;;;;;13.98;7.35;;;8.60;94.20;;;;;;5012937;28;20026;-62
2021/10/17 05:30:22;;;;;;;11.30;6.97;;;8.60;94.10;;;;;;4998223;28;20026;-61
2021/10/17 05:32:57;;;;;;;12.75;6.72;;;8.60;94.10;;;;;;4992119;28;20390;-62
2021/10/17 05:35:22;;;;;;;14.50;7.43;;;8.60;94.10;;;;;;4991638;28;20375;-61
2021/10/17 05:38:11;;;;;;;13.38;8.10;;;8.60;94.20;;;;;;4994343;28;20484;-62
2021/10/17 05:40:37;;;;;;;11.95;6.93;;;8.50;94.20;;;;;;4972019;28;20038;-61
2021/10/17 05:43:02;;;;;;;12.93;7.03;;;8.50;94.40;;;;;;4994719;28;20030;-61
2021/10/17 05:45:28;;;;;;;12.20;7.75;;;8.40;94.40;;;;;;5006649;28;20037;-62
2021/10/17 05:47:53;;;;;;;11.80;6.95;;;8.40;94.40;;;;;;5012894;28;20387;-61
2021/10/17 05:50:19;;;;;;;13.52;7.78;;;8.40;94.70;;;;;;5012578;28;20072;-61
2021/10/17 05:52:44;;;;;;;12.75;7.47;;;8.40;94.50;;;;;;4994691;28;20053;-61
2021/10/17 05:55:10;;;;;;;17.55;7.78;;;8.40;94.50;;;;;;5012929;28;20040;-61
2021/10/17 05:57:38;;;;;;;12.02;6.68;;;8.30;94.40;;;;;;5012132;28;20041;-61
2021/10/17 06:00:05;;;;;;;17.15;8.15;;;8.40;94.50;;;;;;5012612;28;20107;-62
2021/10/17 06:02:31;;;;;;;15.35;7.45;;;8.40;94.50;;;;;;5012452;28;20026;-61
2021/10/17 06:04:56;;;;;;;12.95;7.30;;;8.40;94.40;;;;;;5012945;28;20091;-62
2021/10/17 06:07:22;;;;;;;12.48;7.22;;;8.40;94.40;;;;;;5001986;28;20540;-61
2021/10/17 06:09:48;;;;;;;15.80;8.07;;;8.40;94.40;;;;;;5001157;28;20021;-61
2021/10/17 06:12:13;;;;;;;12.90;7.68;;;8.40;94.30;;;;;;5001727;28;20056;-61
2021/10/17 06:14:39;;;;;;;14.20;7.65;;;8.40;94.30;;;;;;5011580;28;20026;-61
2021/10/17 06:17:05;;;;;;;16.08;7.68;;;8.40;94.20;;;;;;5000165;28;20514;-62
2021/10/17 06:19:30;;;;;;;11.80;8.05;;;8.40;94.10;;;;;;5014059;28;20064;-62
2021/10/17 06:21:57;;;;;;;18.65;8.02;;;8.40;94.10;;;;;;5018382;28;20025;-61
2021/10/17 06:24:23;;;;;;;19.27;8.25;;;8.40;94.20;;;;;;5018486;28;20025;-61
2021/10/17 06:26:48;;;;;;;15.25;8.13;;;8.40;94.40;;;;;;5014005;28;20034;-61
2021/10/17 06:29:14;;;;;;;13.50;8.15;;;8.40;94.50;;;;;;4991954;28;20378;-61
2021/10/17 06:31:40;;;;;;;14.30;7.85;;;8.40;94.60;;;;;;5000740;28;20014;-61
2021/10/17 06:34:05;;;;;;;10.60;7.63;;;8.40;94.50;;;;;;5000804;28;20021;-61
2021/10/17 06:36:31;;;;;;;15.15;7.55;;;8.40;94.40;;;;;;5000874;28;20113;-61
2021/10/17 06:38:57;;;;;;;12.88;8.82;;;8.50;94.20;;;;;;5013271;28;20030;-61
2021/10/17 06:41:22;;;;;;;18.55;8.30;;;8.50;94.10;;;;;;5012709;28;20101;-61
2021/10/17 06:43:48;;;;;;;16.83;8.90;;;8.50;94.20;;;;;;5016414;28;20060;-61
2021/10/17 06:46:14;;;;;;;17.92;9.88;;;8.50;94.30;;;;;;5011920;28;20482;-61
2021/10/17 06:48:40;;;;;;;16.15;8.65;;;8.40;94.40;;;;;;5011461;28;20033;-61
2021/10/17 06:51:05;;;;;;;16.17;8.65;;;8.40;94.50;;;;;;5015795;28;20044;-61
2021/10/17 06:53:31;;;;;;;13.93;8.07;;;8.40;94.50;;;;;;5000672;28;20022;-62
2021/10/17 06:55:56;;;;;;;17.98;9.20;;;8.40;94.50;;;;;;5018321;28;20056;-61
2021/10/17 06:58:22;;;;;;;19.40;9.23;;;8.50;94.50;;;;;;5003701;28;20080;-62
2021/10/17 07:00:48;;;;;;;18.35;9.02;;;8.50;94.40;;;;;;5013429;28;20066;-61
2021/10/17 07:03:14;;;;;;;17.63;8.00;;;8.50;94.30;;;;;;5012324;28;20036;-61
2021/10/17 07:05:39;;;;;;;17.33;7.97;;;8.50;94.10;;;;;;4975961;28;20030;-61
2021/10/17 07:08:05;;;;;;;12.98;7.88;;;8.60;93.90;;;;;;5006963;28;20030;-61
2021/10/17 07:13:35;;;;;;;12.45;7.60;;;8.80;93.90;;;;;;4976430;28;20030;-61
2021/10/17 07:16:01;;;;;;;19.40;8.63;;;8.80;93.90;;;;;;5013961;28;20033;-62
2021/10/17 07:18:26;;;;;;;16.92;8.07;;;8.80;93.90;;;;;;5006000;28;20577;-61
2021/10/17 07:20:52;;;;;;;12.25;7.10;;;8.90;93.90;;;;;;5007247;28;20019;-61
2021/10/17 07:23:18;;;;;;;10.43;6.28;;;8.90;93.80;;;;;;4991839;28;20379;-62
2021/10/17 07:25:53;;;;;;;13.20;7.05;;;9.00;93.80;;;;;;4994842;28;20121;-62
2021/10/17 07:28:18;;;;;;;12.55;7.40;;;9.10;93.70;;;;;;5012706;28;20029;-61
2021/10/17 07:30:44;;;;;;;14.88;7.68;;;9.20;93.60;;;;;;5013366;28;20492;-61
2021/10/17 07:33:09;;;;;;;20.80;8.57;;;9.20;93.60;;;;;;5013420;28;20032;-61
2021/10/17 07:35:35;;;;;;;11.50;6.07;;;9.30;93.60;;;;;;5013717;28;20080;-61
2021/10/17 07:38:01;;;;;;;12.07;7.03;;;9.30;93.50;;;;;;5013815;28;20458;-61
2021/10/17 07:40:27;;;;;;;14.13;8.07;;;9.40;93.40;;;;;;5014619;28;20030;-62
2021/10/17 07:43:00;;;;;;;13.20;7.47;;;9.40;93.20;;;;;;4983777;28;20026;-62
2021/10/17 07:48:16;;;;;;;15.32;8.50;;;9.50;93.20;;;;;;4959830;28;20046;-62
2021/10/17 07:50:41;;;;;;;16.52;8.65;;;9.50;93.20;;;;;;5010937;28;20033;-62
2021/10/17 07:53:07;;;;;;;16.23;7.95;;;9.40;93.10;;;;;;5013981;28;20022;-62
2021/10/17 07:55:32;;;;;;;16.98;8.35;;;9.40;93.10;;;;;;5014198;28;20050;-62
2021/10/17 07:57:58;;;;;;;23.98;11.57;;;9.50;93.10;;;;;;5014621;28;20057;-62
2021/10/17 08:00:29;;;;;;;20.83;11.13;;;9.50;93.20;;;;;;4999773;28;20046;-62
2021/10/17 08:02:55;;;;;;;21.92;14.30;;;9.60;93.10;;;;;;5014445;28;20034;-62
2021/10/17 08:05:21;;;;;;;21.33;15.80;;;9.60;93.00;;;;;;5013867;28;20033;-62
2021/10/17 08:07:47;;;;;;;25.25;15.43;;;9.70;93.00;;;;;;5000265;28;20037;-62
2021/10/17 08:10:13;;;;;;;20.73;11.90;;;9.70;92.90;;;;;;5002304;28;20544;-62
2021/10/17 08:12:52;;;;;;;17.33;10.50;;;9.80;92.70;;;;;;5011425;28;20030;-62
2021/10/17 08:15:17;;;;;;;15.15;10.02;;;9.80;92.60;;;;;;5013160;28;20018;-62
2021/10/17 08:17:43;;;;;;;16.15;8.93;;;9.90;92.70;;;;;;5013556;28;20030;-62
2021/10/17 08:20:09;;;;;;;17.17;9.05;;;9.90;92.70;;;;;;4999845;28;20026;-62
2021/10/17 08:22:51;;;;;;;14.63;8.20;;;10.00;92.60;;;;;;5004563;28;20027;-62
2021/10/17 08:25:16;;;;;;;13.93;7.55;;;10.10;92.30;;;;;;5013306;28;20025;-62
2021/10/17 08:27:42;;;;;;;14.68;8.25;;;10.10;92.10;;;;;;4999752;28;20028;-62
2021/10/17 08:30:09;;;;;;;13.23;7.38;;;10.10;92.20;;;;;;5013642;28;20026;-62
2021/10/17 08:32:35;;;;;;;12.25;7.25;;;10.20;92.20;;;;;;4997647;28;20029;-62
2021/10/17 08:35:13;;;;;;;10.75;7.20;;;10.20;92.20;;;;;;5001882;28;20033;-62
2021/10/17 08:41:12;;;;;;;15.43;7.75;;;10.30;92.10;;;;;;4979891;28;20037;-62
2021/10/17 08:43:38;;;;;;;12.45;7.15;;;10.30;92.10;;;;;;4994178;28;20501;-61
2021/10/17 08:46:04;;;;;;;14.60;7.72;;;10.30;92.10;;;;;;5007382;28;20022;-62
2021/10/17 08:48:32;;;;;;;15.32;8.07;;;10.40;91.90;;;;;;5000685;28;20030;-62
2021/10/17 08:50:58;;;;;;;13.70;7.65;;;10.40;92.20;;;;;;5000538;28;20037;-62
2021/10/17 08:53:24;;;;;;;11.80;7.63;;;10.50;91.90;;;;;;5012442;28;20153;-62
2021/10/17 08:56:07;;;;;;;12.80;7.05;;;10.50;91.70;;;;;;5013423;28;20030;-62
2021/10/17 08:58:45;;;;;;;14.18;7.53;;;10.60;91.60;;;;;;4999152;28;20021;-62
2021/10/17 09:01:18;;;;;;;10.60;6.93;;;10.60;91.80;;;;;;4973528;28;20046;-62
2021/10/17 09:03:55;;;;;;;17.13;7.80;;;10.80;91.90;;;;;;4974576;28;20114;-62
2021/10/17 09:06:25;;;;;;;16.10;7.63;;;10.90;91.70;;;;;;4974394;28;20018;-62
2021/10/17 09:09:03;;;;;;;14.77;7.53;;;10.90;91.40;;;;;;4992914;28;20034;-62
2021/10/17 09:11:39;;;;;;;13.30;7.10;;;11.00;91.10;;;;;;4993020;28;20096;-62
2021/10/17 09:14:10;;;;;;;17.10;8.15;;;11.10;91.30;;;;;;4977399;28;20019;-62
2021/10/17 09:16:38;;;;;;;18.35;8.10;;;11.20;91.00;;;;;;4977996;28;20019;-62
2021/10/17 09:19:15;;;;;;;15.88;7.53;;;11.30;90.80;;;;;;4975681;28;20026;-62
2021/10/17 09:22:08;;;;;;;16.20;7.95;;;11.40;90.60;;;;;;4977514;28;20105;-62
2021/10/17 09:24:48;;;;;;;13.95;7.43;;;11.40;90.00;;;;;;4975591;28;20387;-62
2021/10/17 09:27:18;;;;;;;17.15;8.75;;;11.50;89.40;;;;;;4976575;28;20022;-62
2021/10/17 09:29:54;;;;;;;14.77;7.35;;;11.60;89.50;;;;;;4986572;28;20034;-62
2021/10/17 09:32:35;;;;;;;11.68;6.88;;;11.70;88.20;;;;;;4989363;28;20462;-62
2021/10/17 09:35:06;;;;;;;13.52;7.53;;;11.80;88.30;;;;;;4956040;28;20541;-62
2021/10/17 09:37:40;;;;;;;13.40;6.68;;;11.80;87.50;;;;;;4973332;28;20376;-62
2021/10/17 09:40:06;;;;;;;12.13;6.32;;;11.90;88.30;;;;;;4973026;28;20038;-62
2021/10/17 09:42:45;;;;;;;11.38;5.90;;;11.90;87.50;;;;;;4973115;28;20027;-62
2021/10/17 09:45:23;;;;;;;10.50;6.47;;;12.00;87.80;;;;;;4974356;28;20027;-62
2021/10/17 09:51:29;;;;;;;13.80;6.65;;;12.20;85.70;;;;;;4947860;28;20100;-62
2021/10/17 09:53:56;;;;;;;12.57;6.30;;;12.20;85.40;;;;;;4965886;28;20026;-62
2021/10/17 09:56:34;;;;;;;11.60;6.25;;;12.30;85.30;;;;;;4986430;28;20504;-62
2021/10/17 09:59:02;;;;;;;11.73;6.68;;;12.30;84.50;;;;;;4974847;28;20082;-62
2021/10/17 10:01:29;;;;;;;13.75;6.75;;;12.40;84.00;;;;;;5013045;28;20030;-62
2021/10/17 10:03:56;;;;;;;12.10;6.53;;;12.50;83.70;;;;;;5013094;28;20076;-62
2021/10/17 10:06:24;;;;;;;15.15;6.00;;;12.50;83.20;;;;;;5012980;28;20018;-62
2021/10/17 10:12:09;;;;;;;11.77;6.28;;;12.70;82.20;;;;;;4932358;29;20035;-62
2021/10/17 10:15:16;;;;;;;11.18;6.05;;;12.70;81.70;;;;;;4998939;28;20449;-62
2021/10/17 10:17:43;;;;;;;12.05;5.88;;;12.80;81.90;;;;;;5005203;28;20058;-62
2021/10/17 10:20:10;;;;;;;9.05;5.15;;;12.80;80.30;;;;;;5010535;28;20497;-62
2021/10/17 10:22:36;;;;;;;7.63;4.40;;;12.90;80.60;;;;;;5010107;28;20444;-62
2021/10/17 10:28:10;;;;;;;8.85;4.90;;;13.00;80.20;;;;;;4998181;28;20026;-62
2021/10/17 10:30:38;;;;;;;8.98;5.10;;;13.00;80.20;;;;;;5012793;28;20069;-62
2021/10/17 10:33:13;;;;;;;12.27;5.20;;;13.10;79.60;;;;;;5012737;28;20022;-62
2021/10/17 10:36:17;;;;;;;;;;;;;;;;;;;;;
2021/10/17 10:38:52;;;;;;;11.18;5.82;;;13.20;79.10;;;;;;5011928;28;20385;-62
2021/10/17 10:41:20;;;;;;;9.65;5.70;;;13.20;79.60;;;;;;5012682;28;20026;-62
2021/10/17 10:44:12;;;;;;;11.88;5.28;;;13.10;80.20;;;;;;5012669;28;20478;-62
2021/10/17 10:46:38;;;;;;;11.48;5.70;;;13.10;79.80;;;;;;4995063;28;20449;-62
2021/10/17 10:49:43;;;;;;;15.18;6.10;;;13.10;79.60;;;;;;5012496;28;20440;-62
2021/10/17 10:52:44;;;;;;;;;;;;;;;;;;;;;
2021/10/17 10:55:31;;;;;;;9.32;5.35;;;13.20;79.50;;;;;;4980421;28;20044;-62
2021/10/17 10:58:27;;;;;;;10.55;5.95;;;13.20;79.40;;;;;;4996241;28;20027;-62
2021/10/17 11:00:55;;;;;;;10.35;6.30;;;13.30;79.40;;;;;;4996518;28;20042;-62
2021/10/17 11:03:21;;;;;;;8.63;5.22;;;13.30;79.00;;;;;;4996330;28;20493;-62
2021/10/17 11:06:14;;;;;;;11.90;5.88;;;13.40;79.10;;;;;;4996414;28;20027;-62
2021/10/17 11:08:42;;;;;;;10.52;6.00;;;13.60;78.60;;;;;;4996455;28;20498;-62
2021/10/17 11:11:09;;;;;;;12.60;6.78;;;13.70;79.40;;;;;;4978781;28;20050;-62
2021/10/17 11:13:43;;;;;;;10.90;6.25;;;13.80;77.70;;;;;;5001798;28;20108;-62
2021/10/17 11:16:19;;;;;;;10.45;5.70;;;14.40;77.30;;;;;;5015319;28;20025;-62
2021/10/17 11:18:45;;;;;;;13.43;6.25;;;15.00;74.50;;;;;;5009160;28;20053;-62
2021/10/17 11:21:11;;;;;;;12.32;5.50;;;15.60;71.80;;;;;;5008515;28;20022;-62
2021/10/17 11:27:10;;;;;;;11.48;5.85;;;17.60;68.50;;;;;;4953016;29;20064;-63
2021/10/17 11:29:44;;;;;;;11.20;5.47;;;18.70;63.70;;;;;;4992094;28;20096;-63
2021/10/17 11:32:17;;;;;;;9.05;5.25;;;19.10;61.00;;;;;;5015486;28;20474;-63
2021/10/17 11:34:59;;;;;;;11.30;5.72;;;19.40;59.20;;;;;;5015333;28;20470;-62
2021/10/17 11:37:28;;;;;;;10.77;5.97;;;18.80;58.60;;;;;;5015285;28;20105;-63
2021/10/17 11:40:08;;;;;;;10.35;5.25;;;18.10;58.90;;;;;;4997251;28;20029;-62
2021/10/17 11:42:47;;;;;;;6.97;4.50;;;17.70;60.90;;;;;;5008137;28;20026;-62
2021/10/17 11:45:32;;;;;;;9.07;5.17;;;18.20;61.70;;;;;;5009678;28;20026;-63
2021/10/17 11:48:01;;;;;;;10.55;5.82;;;18.80;59.40;;;;;;5006969;28;21549;-63
2021/10/17 11:50:35;;;;;;;8.00;4.53;;;19.00;57.50;;;;;;4995177;28;20026;-63
2021/10/17 11:53:02;;;;;;;7.55;4.32;;;19.10;58.10;;;;;;5009368;28;20018;-63
2021/10/17 11:55:35;;;;;;;11.65;5.13;;;18.80;57.70;;;;;;4997483;28;20026;-62
2021/10/17 11:58:02;;;;;;;10.50;4.72;;;18.70;58.50;;;;;;5014774;28;20443;-62
2021/10/17 12:00:33;;;;;;;9.68;4.93;;;18.40;59.00;;;;;;5014496;28;20058;-62
2021/10/17 12:02:59;;;;;;;6.63;4.00;;;18.00;59.70;;;;;;5013849;28;20030;-62
2021/10/17 12:05:27;;;;;;;10.35;5.03;;;17.70;61.50;;;;;;5000348;28;20045;-62
2021/10/17 12:07:58;;;;;;;7.72;4.95;;;17.40;61.50;;;;;;4999314;28;20026;-63
2021/10/17 12:10:28;;;;;;;8.32;4.70;;;17.10;62.60;;;;;;5013486;28;20072;-62
2021/10/17 12:13:00;;;;;;;7.00;4.40;;;17.10;63.20;;;;;;5004962;28;20017;-62
2021/10/17 12:15:26;;;;;;;7.60;4.63;;;17.10;63.30;;;;;;4991916;28;20490;-63
2021/10/17 12:18:09;;;;;;;9.60;5.30;;;17.10;63.10;;;;;;5004523;28;20058;-62
2021/10/17 12:20:35;;;;;;;10.57;5.28;;;17.00;63.20;;;;;;4994789;28;20030;-62
2021/10/17 12:23:35;;;;;;;6.22;4.30;;;16.70;64.00;;;;;;5000712;28;20030;-62
2021/10/17 12:26:01;;;;;;;10.25;4.68;;;16.80;64.60;;;;;;5002546;28;20068;-63
2021/10/17 12:28:26;;;;;;;9.45;4.53;;;16.90;64.90;;;;;;5011971;28;20057;-63
2021/10/17 12:30:54;;;;;;;6.93;4.22;;;17.00;64.60;;;;;;5013711;28;20053;-62
2021/10/17 12:33:29;;;;;;;9.23;5.57;;;17.00;64.30;;;;;;5014259;28;20018;-63
2021/10/17 12:35:55;;;;;;;13.52;6.72;;;16.80;64.20;;;;;;5014468;28;20030;-62
2021/10/17 12:38:21;;;;;;;11.32;7.15;;;16.50;65.00;;;;;;5014140;28;20028;-62
2021/10/17 12:41:07;;;;;;;15.45;8.48;;;16.30;66.00;;;;;;5014144;28;20112;-62
2021/10/17 12:43:38;;;;;;;14.73;7.43;;;16.20;65.80;;;;;;5014013;28;20105;-62
2021/10/17 12:49:16;;;;;;;10.75;6.30;;;16.00;65.50;;;;;;4983309;28;20105;-62
2021/10/17 12:51:53;;;;;;;11.98;6.20;;;16.10;66.00;;;;;;5013886;28;20112;-62
2021/10/17 12:54:27;;;;;;;7.97;4.80;;;15.80;66.10;;;;;;5013911;28;20088;-62
2021/10/17 12:57:10;;;;;;;8.75;4.30;;;15.70;67.00;;;;;;5013790;28;20025;-62
2021/10/17 12:59:52;;;;;;;9.98;5.40;;;15.80;67.00;;;;;;5009005;28;20038;-65
2021/10/17 13:02:18;;;;;;;12.48;5.82;;;15.80;67.60;;;;;;5002938;28;20045;-62
2021/10/17 13:05:09;;;;;;;;;;;;;;;;;;;;;
2021/10/17 13:07:35;;;;;;;18.38;5.85;;;15.60;68.70;;;;;;5011655;28;20017;-62
2021/10/17 13:10:04;;;;;;;12.88;5.93;;;15.60;68.80;;;;;;5007679;28;20496;-62
2021/10/17 13:12:38;;;;;;;12.27;5.97;;;15.50;69.70;;;;;;4993758;28;20026;-62
2021/10/17 13:15:05;;;;;;;8.05;4.85;;;15.40;70.20;;;;;;4992917;28;20026;-63
2021/10/17 13:17:34;;;;;;;10.70;4.75;;;15.30;69.70;;;;;;4993892;28;20018;-63
2021/10/17 13:20:02;;;;;;;6.65;4.25;;;15.20;69.70;;;;;;5004422;28;20041;-63
2021/10/17 13:22:28;;;;;;;11.25;5.28;;;15.10;70.60;;;;;;5013524;28;20018;-62